Time;durP1;ratioP1;P1;durP2;ratioP2;P2;SDS_P1;SDS_P2;PMS_P1;PMS_P2;Temp;Humidity;BMP_temperature;BMP_pressure;BME280_temperature;BME280_humidity;BME280_pressure;Samples;Min_cycle;Max_cycle;Signal;HPM_P1;HPM_P2
2023/08/15 00:00:01;;;;;;;;;;;;;;;26.36;34.83;99725.75;3152140;28;19924;-68
2023/08/15 00:01:33;;;;;;;;;;;;;;;26.37;34.87;99729.25;3142635;28;19991;-68
2023/08/15 00:03:05;;;;;;;;;;;;;;;26.37;35.07;99724.75;3148826;28;19936;-67
2023/08/15 00:04:35;;;;;;;;;;;;;;;26.37;35.03;99721.25;3152625;28;20011;-68
2023/08/15 00:06:08;;;;;;;;;;;;;;;26.36;34.86;99723.09;3152685;28;19984;-68
2023/08/15 00:07:39;;;;;;;;;;;;;;;26.36;34.80;99719.59;3152363;28;19924;-68
2023/08/15 00:09:11;;;;;;;;;;;;;;;26.36;34.84;99717.75;3153105;28;20767;-69
2023/08/15 00:10:41;;;;;;;;;;;;;;;26.35;35.11;99717.91;3151237;28;19923;-68
2023/08/15 00:12:13;;;;;;;;;;;;;;;26.36;34.92;99711.59;3153084;28;20509;-69
2023/08/15 00:13:43;;;;;;;;;;;;;;;26.37;35.03;99721.25;3152618;28;19928;-69
2023/08/15 00:15:15;;;;;;;;;;;;;;;26.38;35.03;99717.56;3148059;28;19932;-68
2023/08/15 00:16:45;;;;;;;;;;;;;;;26.36;34.76;99717.75;3152841;28;20345;-69
2023/08/15 00:18:17;;;;;;;;;;;;;;;26.37;35.20;99723.91;3152727;28;19924;-68
2023/08/15 00:19:48;;;;;;;;;;;;;;;26.35;34.93;99718.72;3127780;28;20010;-68
2023/08/15 00:21:21;;;;;;;;;;;;;;;26.35;34.94;99716.06;3151442;28;19965;-69
2023/08/15 00:22:51;;;;;;;;;;;;;;;26.34;35.14;99717.09;3152853;28;19931;-69
2023/08/15 00:24:23;;;;;;;;;;;;;;;26.32;34.96;99716.41;3141093;28;20077;-69
2023/08/15 00:25:53;;;;;;;;;;;;;;;26.31;35.06;99717.44;3140442;28;19924;-68
2023/08/15 00:27:25;;;;;;;;;;;;;;;26.31;34.88;99717.44;3140457;28;19955;-69
2023/08/15 00:28:58;;;;;;;;;;;;;;;26.32;34.98;99721.75;3140092;28;20359;-68
2023/08/15 00:30:32;;;;;;;;;;;;;;;26.32;35.23;99724.41;3136171;28;19966;-68
2023/08/15 00:32:03;;;;;;;;;;;;;;;26.28;35.38;99723.13;3140424;28;19925;-68
2023/08/15 00:33:35;;;;;;;;;;;;;;;26.25;35.04;99724.28;3139938;28;19939;-68
2023/08/15 00:35:06;;;;;;;;;;;;;;;26.20;35.13;99721.28;3140339;28;19924;-69
2023/08/15 00:36:39;;;;;;;;;;;;;;;26.18;35.51;99736.66;3139715;28;19924;-68
2023/08/15 00:38:09;;;;;;;;;;;;;;;26.14;35.15;99735.31;3132958;28;19929;-69
2023/08/15 00:39:41;;;;;;;;;;;;;;;26.13;35.49;99735.50;3139771;28;19924;-69
2023/08/15 00:41:11;;;;;;;;;;;;;;;26.12;35.59;99731.16;3136961;28;19967;-68
2023/08/15 00:42:43;;;;;;;;;;;;;;;26.10;35.12;99732.19;3140212;28;20015;-68
2023/08/15 00:44:14;;;;;;;;;;;;;;;26.09;35.56;99732.38;3129078;28;20003;-69
2023/08/15 00:45:46;;;;;;;;;;;;;;;26.07;35.49;99735.19;3127657;28;20320;-68
2023/08/15 00:47:18;;;;;;;;;;;;;;;26.06;35.27;99738.03;3139716;28;20439;-69
2023/08/15 00:48:50;;;;;;;;;;;;;;;26.06;35.15;99730.03;3139460;28;20094;-68
2023/08/15 00:50:23;;;;;;;;;;;;;;;26.04;35.27;99726.69;3139748;28;19924;-69
2023/08/15 00:51:55;;;;;;;;;;;;;;;26.07;35.45;99721.84;3139877;28;20099;-69
2023/08/15 00:53:28;;;;;;;;;;;;;;;26.08;35.24;99728.00;3133783;28;19931;-68
2023/08/15 00:54:59;;;;;;;;;;;;;;;26.08;35.59;99722.66;3140118;28;19931;-68
2023/08/15 00:56:31;;;;;;;;;;;;;;;26.08;35.40;99720.00;3139982;28;19924;-69
2023/08/15 00:58:01;;;;;;;;;;;;;;;26.08;35.42;99723.50;3140018;28;20375;-69
2023/08/15 00:59:34;;;;;;;;;;;;;;;26.08;35.45;99717.34;3135783;28;19924;-68
2023/08/15 01:01:04;;;;;;;;;;;;;;;26.06;35.20;99717.53;3136938;28;19929;-69
2023/08/15 01:02:36;;;;;;;;;;;;;;;26.05;35.17;99726.50;3132336;28;20474;-69
2023/08/15 01:04:07;;;;;;;;;;;;;;;26.04;35.53;99719.53;3136334;28;19931;-68
2023/08/15 01:05:39;;;;;;;;;;;;;;;26.03;35.20;99725.88;3139984;28;19959;-68
2023/08/15 01:07:12;;;;;;;;;;;;;;;26.02;35.54;99716.19;3140198;28;19924;-68
2023/08/15 01:08:43;;;;;;;;;;;;;;;26.05;35.40;99717.69;3140014;28;19932;-69
2023/08/15 01:10:14;;;;;;;;;;;;;;;26.06;35.19;99716.69;3139157;28;19955;-68
2023/08/15 01:11:49;;;;;;;;;;;;;;;26.06;35.35;99712.19;3140159;28;20325;-69
2023/08/15 01:13:25;;;;;;;;;;;;;;;26.08;35.32;99717.34;3135800;28;20353;-68
2023/08/15 01:15:00;;;;;;;;;;;;;;;26.08;35.48;99718.16;3139882;28;20492;-68
2023/08/15 01:16:34;;;;;;;;;;;;;;;26.07;35.04;99713.84;3139881;28;19932;-69
2023/08/15 01:18:09;;;;;;;;;;;;;;;26.04;35.07;99711.50;3140139;28;19928;-68
2023/08/15 01:19:44;;;;;;;;;;;;;;;26.06;35.42;99714.84;3139517;28;20050;-68
2023/08/15 01:21:17;;;;;;;;;;;;;;;26.06;35.43;99717.53;3139953;28;20503;-69
2023/08/15 01:22:52;;;;;;;;;;;;;;;26.06;35.36;99714.03;3132867;28;20460;-69
2023/08/15 01:24:25;;;;;;;;;;;;;;;26.07;35.40;99716.50;3138150;28;19934;-68
2023/08/15 01:25:56;;;;;;;;;;;;;;;26.07;35.37;99702.34;3140007;28;20081;-69
2023/08/15 01:27:27;;;;;;;;;;;;;;;26.06;35.42;99709.53;3138958;28;20396;-68
2023/08/15 01:28:58;;;;;;;;;;;;;;;26.06;35.11;99704.19;3136026;28;20587;-69
2023/08/15 01:30:30;;;;;;;;;;;;;;;26.05;35.13;99705.16;3139986;28;20001;-68
2023/08/15 01:32:03;;;;;;;;;;;;;;;26.05;35.27;99704.34;3139768;28;19924;-69
2023/08/15 01:33:38;;;;;;;;;;;;;;;26.03;35.19;99707.19;3139351;28;20016;-68
2023/08/15 01:35:14;;;;;;;;;;;;;;;26.05;35.19;99707.00;3139715;28;20855;-69
2023/08/15 01:36:47;;;;;;;;;;;;;;;26.03;35.11;99696.53;3139812;28;19924;-68
2023/08/15 01:38:22;;;;;;;;;;;;;;;26.01;35.50;99701.19;3133202;28;20334;-69
2023/08/15 01:39:56;;;;;;;;;;;;;;;25.98;35.52;99685.53;3139399;28;20684;-69
2023/08/15 01:41:30;;;;;;;;;;;;;;;25.96;35.19;99692.03;3137035;28;19924;-69
2023/08/15 01:43:02;;;;;;;;;;;;;;;25.92;35.64;99683.53;3133662;28;19924;-68
2023/08/15 01:44:35;;;;;;;;;;;;;;;25.90;35.63;99688.19;3129385;28;19955;-68
2023/08/15 01:46:05;;;;;;;;;;;;;;;25.85;35.68;99690.53;3139637;28;20388;-68
2023/08/15 01:47:37;;;;;;;;;;;;;;;25.80;35.76;99688.38;3139446;28;20019;-68
2023/08/15 01:49:09;;;;;;;;;;;;;;;25.77;35.69;99695.88;3131830;28;19978;-68
2023/08/15 01:50:41;;;;;;;;;;;;;;;25.74;35.87;99693.56;3139798;28;19947;-68
2023/08/15 01:52:11;;;;;;;;;;;;;;;25.71;35.83;99691.22;3139704;28;20316;-68
2023/08/15 01:53:43;;;;;;;;;;;;;;;25.66;35.85;99691.72;3139431;28;19924;-69
2023/08/15 01:55:15;;;;;;;;;;;;;;;25.65;35.62;99690.06;3139843;28;19924;-69
2023/08/15 01:56:47;;;;;;;;;;;;;;;25.62;36.04;99695.75;3138912;28;19935;-69
2023/08/15 01:58:18;;;;;;;;;;;;;;;25.59;35.94;99693.41;3133129;28;20019;-69
2023/08/15 01:59:49;;;;;;;;;;;;;;;25.56;35.79;99694.59;3127168;28;20444;-68
2023/08/15 02:01:21;;;;;;;;;;;;;;;25.51;36.08;99683.59;3130814;28;19928;-68
2023/08/15 02:02:51;;;;;;;;;;;;;;;25.49;36.08;99685.56;3136269;28;20387;-68
2023/08/15 02:04:23;;;;;;;;;;;;;;;25.45;36.23;99686.94;3135701;28;19924;-68
2023/08/15 02:05:53;;;;;;;;;;;;;;;25.41;36.29;99693.59;3127766;28;19924;-68
2023/08/15 02:07:25;;;;;;;;;;;;;;;25.39;36.09;99685.75;3125944;28;19966;-68
2023/08/15 02:08:56;;;;;;;;;;;;;;;25.36;36.22;99685.28;3141640;28;20506;-68
2023/08/15 02:10:29;;;;;;;;;;;;;;;25.32;36.38;99678.59;3141299;28;19928;-69
2023/08/15 02:11:59;;;;;;;;;;;;;;;25.28;36.43;99682.59;3137520;28;19925;-69
2023/08/15 02:13:33;;;;;;;;;;;;;;;25.23;36.70;99683.13;3141538;28;20057;-69
2023/08/15 02:15:04;;;;;;;;;;;;;;;25.21;36.77;99697.59;3141588;28;20010;-69
2023/08/15 02:16:36;;;;;;;;;;;;;;;25.17;36.64;99689.94;3141460;28;19924;-68
2023/08/15 02:18:07;;;;;;;;;;;;;;;25.16;36.64;99685.59;3141852;28;19924;-68
2023/08/15 02:19:38;;;;;;;;;;;;;;;25.15;36.75;99689.25;3141552;28;19924;-68
2023/08/15 02:21:09;;;;;;;;;;;;;;;25.16;36.92;99690.91;3130655;28;19931;-68
2023/08/15 02:22:41;;;;;;;;;;;;;;;25.13;37.07;99685.91;3139244;28;19959;-68
2023/08/15 02:24:11;;;;;;;;;;;;;;;25.11;36.88;99685.25;3141389;28;20297;-68
2023/08/15 02:25:45;;;;;;;;;;;;;;;25.09;36.97;99684.56;3141600;28;19977;-68
2023/08/15 02:27:15;;;;;;;;;;;;;;;25.07;37.19;99686.56;3137479;28;19947;-68
2023/08/15 02:28:47;;;;;;;;;;;;;;;25.04;37.18;99678.91;3141798;28;19928;-68
2023/08/15 02:30:18;;;;;;;;;;;;;;;25.03;37.25;99681.75;3141334;28;19925;-69
2023/08/15 02:31:49;;;;;;;;;;;;;;;25.02;37.01;99690.72;3141440;28;19931;-68
2023/08/15 02:33:21;;;;;;;;;;;;;;;24.98;37.00;99688.38;3141402;28;19990;-69
2023/08/15 02:34:52;;;;;;;;;;;;;;;24.98;36.95;99688.38;3141408;28;19924;-69
2023/08/15 02:36:23;;;;;;;;;;;;;;;25.00;37.02;99684.72;3140993;28;19972;-68
2023/08/15 02:37:54;;;;;;;;;;;;;;;25.00;37.10;99690.88;3134528;28;19925;-69
2023/08/15 02:39:25;;;;;;;;;;;;;;;25.03;37.01;99687.06;3141176;28;20254;-68
2023/08/15 02:40:57;;;;;;;;;;;;;;;25.04;37.05;99680.72;3136497;28;19937;-69
2023/08/15 02:42:29;;;;;;;;;;;;;;;25.02;37.40;99685.38;3141446;28;19924;-69
2023/08/15 02:44:00;;;;;;;;;;;;;;;25.01;37.08;99681.88;3132205;28;20524;-68
2023/08/15 02:45:32;;;;;;;;;;;;;;;25.01;37.36;99681.88;3130012;28;20015;-68
2023/08/15 02:47:02;;;;;;;;;;;;;;;25.00;37.32;99674.91;3138539;28;20396;-68
2023/08/15 02:48:34;;;;;;;;;;;;;;;25.03;37.27;99679.06;3143402;28;19930;-69
2023/08/15 02:50:05;;;;;;;;;;;;;;;25.05;37.13;99677.88;3146065;28;20274;-68
2023/08/15 02:51:36;;;;;;;;;;;;;;;25.08;37.00;99685.56;3146415;28;19920;-68
2023/08/15 02:53:07;;;;;;;;;;;;;;;25.10;37.18;99688.88;3146532;28;19920;-69
2023/08/15 02:54:38;;;;;;;;;;;;;;;25.09;37.29;99689.91;3146428;28;20414;-69
2023/08/15 02:56:10;;;;;;;;;;;;;;;25.08;37.29;99688.25;3136780;28;20778;-69
2023/08/15 02:57:42;;;;;;;;;;;;;;;25.10;36.99;99690.72;3138192;28;19999;-68
2023/08/15 02:59:13;;;;;;;;;;;;;;;25.06;36.95;99687.56;3146001;28;19928;-69
2023/08/15 03:00:44;;;;;;;;;;;;;;;25.09;37.25;99694.41;3146011;28;19931;-69
2023/08/15 03:02:16;;;;;;;;;;;;;;;25.11;37.10;99690.56;3135469;28;20003;-68
2023/08/15 03:03:47;;;;;;;;;;;;;;;25.14;36.97;99689.41;3146628;28;19956;-69
2023/08/15 03:05:18;;;;;;;;;;;;;;;25.16;36.88;99690.09;3146408;28;20321;-69
2023/08/15 03:06:49;;;;;;;;;;;;;;;25.18;37.11;99688.94;3146255;28;20276;-69
2023/08/15 03:08:20;;;;;;;;;;;;;;;25.21;37.06;99687.75;3146052;28;20010;-69
2023/08/15 03:09:51;;;;;;;;;;;;;;;25.23;36.70;99684.91;3144541;28;19921;-68
2023/08/15 03:11:24;;;;;;;;;;;;;;;25.24;36.97;99690.09;3143368;28;20413;-69
2023/08/15 03:12:54;;;;;;;;;;;;;;;25.25;36.71;99691.75;3145539;28;19978;-69
2023/08/15 03:14:28;;;;;;;;;;;;;;;25.25;36.98;99691.75;3146118;28;20491;-68
2023/08/15 03:15:58;;;;;;;;;;;;;;;25.25;36.99;99689.09;3146168;28;19924;-68
2023/08/15 03:17:30;;;;;;;;;;;;;;;25.26;37.16;99687.25;3145676;28;20001;-68
2023/08/15 03:19:00;;;;;;;;;;;;;;;25.27;37.16;99691.59;3146401;28;19920;-68
2023/08/15 03:20:32;;;;;;;;;;;;;;;25.30;37.01;99691.25;3146154;28;20332;-69
2023/08/15 03:22:02;;;;;;;;;;;;;;;25.30;37.05;99693.94;3145877;28;19920;-69
2023/08/15 03:23:34;;;;;;;;;;;;;;;25.28;37.09;99694.09;3145988;28;20413;-68
2023/08/15 03:25:05;;;;;;;;;;;;;;;25.29;36.89;99698.44;3141887;28;20317;-69
2023/08/15 03:26:38;;;;;;;;;;;;;;;25.29;36.85;99694.91;3146257;28;19920;-69
2023/08/15 03:28:08;;;;;;;;;;;;;;;25.26;36.96;99700.56;3145797;28;19924;-68
2023/08/15 03:29:40;;;;;;;;;;;;;;;25.26;36.88;99703.25;3145979;28;19930;-69
2023/08/15 03:31:10;;;;;;;;;;;;;;;25.25;36.97;99701.59;3146356;28;19920;-69
2023/08/15 03:32:42;;;;;;;;;;;;;;;25.27;37.27;99691.59;3145795;28;19927;-69
2023/08/15 03:34:12;;;;;;;;;;;;;;;25.27;37.19;99695.09;3145699;28;19928;-69
2023/08/15 03:35:44;;;;;;;;;;;;;;;25.30;36.91;99693.94;3145892;28;19924;-69
2023/08/15 03:37:15;;;;;;;;;;;;;;;25.30;37.01;99692.09;3142485;28;19921;-69
2023/08/15 03:38:47;;;;;;;;;;;;;;;25.33;37.23;99690.94;3142129;28;19924;-69
2023/08/15 03:40:17;;;;;;;;;;;;;;;25.35;36.85;99702.25;3141563;28;19954;-69
2023/08/15 03:41:50;;;;;;;;;;;;;;;25.36;37.14;99695.94;3142738;28;19959;-69
2023/08/15 03:43:21;;;;;;;;;;;;;;;25.36;36.87;99694.09;3141870;28;20262;-68
2023/08/15 03:44:52;;;;;;;;;;;;;;;25.33;37.36;99697.09;3138257;28;19927;-68
2023/08/15 03:46:24;;;;;;;;;;;;;;;25.28;37.11;99698.59;3145690;28;20375;-68
2023/08/15 03:47:55;;;;;;;;;;;;;;;25.24;37.51;99707.94;3145833;28;20143;-68
2023/08/15 03:49:26;;;;;;;;;;;;;;;25.19;37.37;99705.75;3145818;28;19924;-68
2023/08/15 03:50:58;;;;;;;;;;;;;;;25.13;37.74;99706.38;3145923;28;20014;-68
2023/08/15 03:52:32;;;;;;;;;;;;;;;25.11;37.46;99697.72;3140865;28;19925;-69
2023/08/15 03:54:04;;;;;;;;;;;;;;;25.11;37.63;99697.72;3134483;28;20015;-69
2023/08/15 03:55:35;;;;;;;;;;;;;;;25.11;37.71;99703.03;3145912;28;20033;-69
2023/08/15 03:57:07;;;;;;;;;;;;;;;25.11;37.80;99701.22;3145896;28;20302;-68
2023/08/15 03:58:39;;;;;;;;;;;;;;;25.13;37.75;99698.38;3145675;28;19920;-69
2023/08/15 04:00:10;;;;;;;;;;;;;;;25.13;37.68;99703.72;3134602;28;19925;-69
2023/08/15 04:01:42;;;;;;;;;;;;;;;25.14;37.85;99703.59;3135218;28;19927;-68
2023/08/15 04:03:13;;;;;;;;;;;;;;;25.13;37.49;99709.03;3142744;28;19928;-68
2023/08/15 04:04:44;;;;;;;;;;;;;;;25.13;37.82;99709.91;3145611;28;20251;-68
2023/08/15 04:06:15;;;;;;;;;;;;;;;25.13;37.82;99715.22;3145489;28;19932;-69
2023/08/15 04:07:46;;;;;;;;;;;;;;;25.11;37.87;99719.88;3145412;28;19931;-69
2023/08/15 04:09:17;;;;;;;;;;;;;;;25.09;37.97;99705.06;3141278;28;19924;-69
2023/08/15 04:10:48;;;;;;;;;;;;;;;25.07;37.95;99707.88;3144598;28;19930;-69
2023/08/15 04:12:20;;;;;;;;;;;;;;;25.04;37.76;99704.72;3145315;28;19982;-68
2023/08/15 04:13:52;;;;;;;;;;;;;;;25.01;37.88;99713.03;3145317;28;20318;-68
2023/08/15 04:15:22;;;;;;;;;;;;;;;25.00;37.82;99714.88;3145551;28;19920;-69
2023/08/15 04:16:54;;;;;;;;;;;;;;;25.01;38.12;99713.03;3145614;28;19924;-69
2023/08/15 04:18:24;;;;;;;;;;;;;;;25.03;38.03;99716.38;3144195;28;19920;-67
2023/08/15 04:19:56;;;;;;;;;;;;;;;25.03;37.83;99714.53;3133844;28;20004;-68
2023/08/15 04:21:27;;;;;;;;;;;;;;;25.04;37.90;99715.38;3145609;28;19927;-69
2023/08/15 04:22:58;;;;;;;;;;;;;;;25.06;37.83;99721.38;3123850;28;19931;-68
2023/08/15 04:24:30;;;;;;;;;;;;;;;25.06;38.18;99716.88;3143733;28;19920;-68
2023/08/15 04:26:00;;;;;;;;;;;;;;;25.06;38.13;99722.19;3145462;28;20023;-68
2023/08/15 04:27:33;;;;;;;;;;;;;;;25.04;37.90;99724.19;3145613;28;20507;-68
2023/08/15 04:29:05;;;;;;;;;;;;;;;25.04;38.19;99720.69;3145573;28;19951;-69
2023/08/15 04:30:36;;;;;;;;;;;;;;;25.04;37.97;99728.69;3145444;28;19920;-68
2023/08/15 04:32:07;;;;;;;;;;;;;;;25.00;38.33;99728.19;3145314;28;19924;-68
2023/08/15 04:33:38;;;;;;;;;;;;;;;24.94;38.30;99727.00;3145970;28;19931;-69
2023/08/15 04:35:09;;;;;;;;;;;;;;;24.90;38.44;99732.81;3145653;28;19924;-69
2023/08/15 04:36:44;;;;;;;;;;;;;;;24.84;38.61;99728.97;3145682;28;19999;-69
2023/08/15 04:38:15;;;;;;;;;;;;;;;24.81;38.79;99728.47;3138442;28;19951;-69
2023/08/15 04:39:46;;;;;;;;;;;;;;;24.82;38.66;99738.16;3145504;28;19928;-69
2023/08/15 04:41:17;;;;;;;;;;;;;;;24.82;38.74;99730.16;3142801;28;19920;-68
2023/08/15 04:42:50;;;;;;;;;;;;;;;24.84;38.86;99739.63;3145439;28;19926;-69
2023/08/15 04:44:20;;;;;;;;;;;;;;;24.87;38.51;99731.31;3134551;28;19925;-69
2023/08/15 04:45:52;;;;;;;;;;;;;;;24.89;38.54;99737.31;3145340;28;20009;-68
2023/08/15 04:47:22;;;;;;;;;;;;;;;24.90;38.77;99741.63;3145624;28;19920;-68
2023/08/15 04:48:54;;;;;;;;;;;;;;;24.92;38.61;99739.66;3139234;28;19924;-69
2023/08/15 04:50:24;;;;;;;;;;;;;;;24.91;38.77;99735.31;3144313;28;19920;-69
2023/08/15 04:51:56;;;;;;;;;;;;;;;24.90;38.58;99743.47;3143478;28;20150;-67
2023/08/15 04:53:26;;;;;;;;;;;;;;;24.88;38.72;99737.50;3141948;28;19970;-68
2023/08/15 04:54:58;;;;;;;;;;;;;;;24.86;38.83;99744.81;3145465;28;20000;-68
2023/08/15 04:56:29;;;;;;;;;;;;;;;24.83;38.90;99737.97;3145407;28;20001;-69
2023/08/15 04:58:02;;;;;;;;;;;;;;;24.82;38.91;99744.28;3145350;28;19921;-68
2023/08/15 04:59:32;;;;;;;;;;;;;;;24.81;38.86;99745.28;3145414;28;19942;-68
2023/08/15 05:01:04;;;;;;;;;;;;;;;24.81;38.92;99741.78;3142174;28;19928;-67
2023/08/15 05:02:35;;;;;;;;;;;;;;;24.79;39.04;99751.75;3137208;28;19920;-69
2023/08/15 05:04:07;;;;;;;;;;;;;;;24.77;39.28;99748.44;3145202;28;20011;-68
2023/08/15 05:05:37;;;;;;;;;;;;;;;24.75;39.00;99745.94;3144947;28;20290;-68
2023/08/15 05:07:09;;;;;;;;;;;;;;;24.73;39.20;99745.28;3141273;28;20027;-68
2023/08/15 05:08:39;;;;;;;;;;;;;;;24.71;39.51;99739.25;3145203;28;20332;-69
2023/08/15 05:10:11;;;;;;;;;;;;;;;24.66;39.43;99737.06;3144344;28;19920;-69
2023/08/15 05:11:45;;;;;;;;;;;;;;;24.66;39.68;99746.91;3145495;28;19927;-69
2023/08/15 05:13:18;;;;;;;;;;;;;;;24.64;39.55;99743.56;3145544;28;20019;-69
2023/08/15 05:14:49;;;;;;;;;;;;;;;24.60;39.82;99745.72;3135025;28;19921;-69
2023/08/15 05:16:20;;;;;;;;;;;;;;;24.59;39.88;99746.72;3143976;28;19969;-69
2023/08/15 05:17:52;;;;;;;;;;;;;;;24.59;39.88;99744.06;3145222;28;19932;-69
2023/08/15 05:19:23;;;;;;;;;;;;;;;24.56;39.94;99744.38;3138564;28;20306;-68
2023/08/15 05:20:54;;;;;;;;;;;;;;;24.54;40.06;99741.03;3141660;28;19924;-68
2023/08/15 05:22:26;;;;;;;;;;;;;;;24.54;40.14;99738.38;3141156;28;19983;-68
2023/08/15 05:23:57;;;;;;;;;;;;;;;24.52;40.14;99743.88;3152285;28;19924;-69
2023/08/15 05:25:29;;;;;;;;;;;;;;;24.52;40.14;99740.34;3157888;28;19931;-69
2023/08/15 05:26:59;;;;;;;;;;;;;;;24.50;40.21;99745.84;3157709;28;19920;-69
2023/08/15 05:28:32;;;;;;;;;;;;;;;24.51;40.16;99741.34;3157487;28;19980;-68
2023/08/15 05:30:03;;;;;;;;;;;;;;;24.51;39.99;99744.00;3157816;28;19920;-68
2023/08/15 05:31:34;;;;;;;;;;;;;;;24.52;40.29;99740.34;3157735;28;20053;-68
2023/08/15 05:33:05;;;;;;;;;;;;;;;24.52;40.14;99746.53;3157611;28;20278;-68
2023/08/15 05:34:37;;;;;;;;;;;;;;;24.54;39.84;99738.38;3147857;28;19942;-69
2023/08/15 05:36:07;;;;;;;;;;;;;;;24.57;39.78;99747.88;3155792;28;19928;-68
2023/08/15 05:37:39;;;;;;;;;;;;;;;24.59;39.98;99740.56;3153390;28;19940;-68
2023/08/15 05:39:09;;;;;;;;;;;;;;;24.61;39.96;99741.22;3159876;28;19924;-69
2023/08/15 05:40:41;;;;;;;;;;;;;;;24.63;39.84;99747.22;3158836;28;19976;-67
2023/08/15 05:42:17;;;;;;;;;;;;;;;24.67;39.72;99754.75;3158989;28;19919;-67
2023/08/15 05:43:50;;;;;;;;;;;;;;;24.71;39.52;99756.06;3152270;28;19920;-67
2023/08/15 05:45:20;;;;;;;;;;;;;;;24.75;39.78;99743.25;3144608;28;19920;-67
2023/08/15 05:46:52;;;;;;;;;;;;;;;24.77;39.43;99745.78;3155634;28;19920;-67
2023/08/15 05:48:23;;;;;;;;;;;;;;;24.80;39.51;99751.59;3160030;28;19923;-67
2023/08/15 05:49:55;;;;;;;;;;;;;;;24.82;39.56;99746.97;3159695;28;20044;-67
2023/08/15 05:51:25;;;;;;;;;;;;;;;24.86;39.41;99744.81;3153859;28;20262;-67
2023/08/15 05:52:57;;;;;;;;;;;;;;;24.88;39.33;99743.66;3153656;28;19954;-68
2023/08/15 05:54:27;;;;;;;;;;;;;;;24.90;39.21;99741.63;3151523;28;20336;-68
2023/08/15 05:55:59;;;;;;;;;;;;;;;24.92;39.32;99744.97;3159745;28;19924;-67
2023/08/15 05:57:29;;;;;;;;;;;;;;;24.95;39.29;99744.66;3159643;28;19928;-67
2023/08/15 05:59:02;;;;;;;;;;;;;;;24.98;39.13;99746.16;3160132;28;19941;-68
2023/08/15 06:00:33;;;;;;;;;;;;;;;25.00;39.13;99746.84;3159774;28;20401;-68
2023/08/15 06:02:05;;;;;;;;;;;;;;;25.02;39.19;99747.47;3148603;28;20066;-68
2023/08/15 06:03:36;;;;;;;;;;;;;;;25.04;39.38;99750.00;3156722;28;19928;-68
2023/08/15 06:05:07;;;;;;;;;;;;;;;25.06;39.29;99753.34;3156971;28;20008;-68
2023/08/15 06:06:38;;;;;;;;;;;;;;;25.07;39.19;99753.16;3158660;28;20015;-68
2023/08/15 06:08:10;;;;;;;;;;;;;;;25.05;39.41;99754.31;3159575;28;20337;-68
2023/08/15 06:09:41;;;;;;;;;;;;;;;25.06;39.41;99756.84;3159289;28;19927;-68
2023/08/15 06:11:12;;;;;;;;;;;;;;;25.07;39.41;99747.00;3149620;28;20435;-67
2023/08/15 06:12:43;;;;;;;;;;;;;;;25.06;39.43;99748.84;3148459;28;20013;-67
2023/08/15 06:14:15;;;;;;;;;;;;;;;25.06;39.17;99748.00;3149094;28;20320;-67
2023/08/15 06:15:47;;;;;;;;;;;;;;;25.05;39.08;99749.81;3159421;28;19920;-68
2023/08/15 06:17:18;;;;;;;;;;;;;;;25.07;39.15;99755.00;3159505;28;19920;-67
2023/08/15 06:18:50;;;;;;;;;;;;;;;25.08;39.45;99746.00;3159220;28;19931;-68
2023/08/15 06:20:20;;;;;;;;;;;;;;;25.07;39.48;99739.84;3154996;28;20273;-68
2023/08/15 06:21:52;;;;;;;;;;;;;;;25.09;39.38;99745.84;3159415;28;20025;-68
2023/08/15 06:23:22;;;;;;;;;;;;;;;25.09;39.26;99747.69;3156166;28;19935;-67
2023/08/15 06:24:54;;;;;;;;;;;;;;;25.10;39.47;99750.16;3146848;28;19931;-68
2023/08/15 06:26:24;;;;;;;;;;;;;;;25.11;39.23;99746.53;3146974;28;19920;-69
2023/08/15 06:27:56;;;;;;;;;;;;;;;25.13;39.30;99751.69;3146837;28;20249;-68
2023/08/15 06:29:28;;;;;;;;;;;;;;;25.14;39.18;99748.91;3146250;28;19932;-68
2023/08/15 06:31:00;;;;;;;;;;;;;;;25.17;39.42;99745.91;3146162;28;19964;-68
2023/08/15 06:32:31;;;;;;;;;;;;;;;25.18;39.11;99744.88;3146715;28;19921;-68
2023/08/15 06:34:04;;;;;;;;;;;;;;;25.19;39.20;99743.88;3145482;28;19920;-68
2023/08/15 06:35:34;;;;;;;;;;;;;;;25.22;39.16;99740.06;3143908;28;19920;-69
2023/08/15 06:37:06;;;;;;;;;;;;;;;25.22;39.41;99739.22;3144072;28;20007;-68
2023/08/15 06:38:36;;;;;;;;;;;;;;;25.23;39.25;99732.91;3141988;28;19924;-68
2023/08/15 06:40:09;;;;;;;;;;;;;;;25.24;39.34;99742.56;3146828;28;20007;-69
2023/08/15 06:41:39;;;;;;;;;;;;;;;25.24;39.15;99738.06;3142698;28;20015;-69
2023/08/15 06:43:11;;;;;;;;;;;;;;;25.21;39.40;99733.06;3144545;28;19928;-68
2023/08/15 06:44:43;;;;;;;;;;;;;;;25.22;39.15;99733.91;3138014;28;19932;-69
2023/08/15 06:46:15;;;;;;;;;;;;;;;25.21;39.33;99737.56;3146202;28;20324;-68
2023/08/15 06:47:46;;;;;;;;;;;;;;;25.18;39.62;99731.56;3145947;28;19977;-67
2023/08/15 06:49:17;;;;;;;;;;;;;;;25.16;39.71;99736.22;3141472;28;20011;-69
2023/08/15 06:50:48;;;;;;;;;;;;;;;25.16;39.62;99730.06;3146404;28;19946;-68
2023/08/15 06:52:19;;;;;;;;;;;;;;;25.17;39.63;99732.56;3146632;28;20062;-68
2023/08/15 06:53:52;;;;;;;;;;;;;;;25.16;39.88;99738.06;3146216;28;20721;-68
2023/08/15 06:55:23;;;;;;;;;;;;;;;25.15;39.69;99734.56;3146782;28;20624;-68
2023/08/15 06:56:55;;;;;;;;;;;;;;;25.16;39.95;99727.41;3146615;28;19931;-68
2023/08/15 06:58:26;;;;;;;;;;;;;;;25.16;39.97;99730.88;3146274;28;19920;-68
2023/08/15 06:59:59;;;;;;;;;;;;;;;25.15;40.02;99729.22;3146713;28;20404;-68
2023/08/15 07:01:29;;;;;;;;;;;;;;;25.14;39.78;99732.03;3140045;28;19928;-68
2023/08/15 07:03:01;;;;;;;;;;;;;;;25.14;39.98;99730.25;3141646;28;20258;-68
2023/08/15 07:04:32;;;;;;;;;;;;;;;25.15;39.69;99731.91;3142258;28;19928;-68
2023/08/15 07:06:05;;;;;;;;;;;;;;;25.15;40.04;99720.41;3146070;28;19924;-68
2023/08/15 07:07:35;;;;;;;;;;;;;;;25.16;39.85;99722.06;3146300;28;19920;-68
2023/08/15 07:09:07;;;;;;;;;;;;;;;25.18;39.83;99730.75;3146169;28;19936;-68
2023/08/15 07:10:38;;;;;;;;;;;;;;;25.18;39.85;99730.75;3144801;28;19920;-68
2023/08/15 07:12:09;;;;;;;;;;;;;;;25.18;40.05;99726.25;3146499;28;19928;-68
2023/08/15 07:13:40;;;;;;;;;;;;;;;25.19;39.77;99741.22;3146288;28;19978;-68
2023/08/15 07:15:13;;;;;;;;;;;;;;;25.17;40.14;99735.25;3146155;28;20457;-68
2023/08/15 07:16:43;;;;;;;;;;;;;;;25.18;40.11;99725.41;3145957;28;20186;-68
2023/08/15 07:18:15;;;;;;;;;;;;;;;25.16;39.88;99725.56;3142134;28;20015;-68
2023/08/15 07:19:45;;;;;;;;;;;;;;;25.15;40.02;99723.91;3121541;28;19928;-68
2023/08/15 07:21:17;;;;;;;;;;;;;;;25.14;40.08;99724.06;3144694;28;19930;-68
2023/08/15 07:22:48;;;;;;;;;;;;;;;25.15;40.23;99717.75;3145732;28;19920;-68
2023/08/15 07:24:19;;;;;;;;;;;;;;;25.16;39.91;99717.56;3146236;28;19931;-69
2023/08/15 07:25:51;;;;;;;;;;;;;;;25.18;40.20;99712.09;3144648;28;19925;-68
2023/08/15 07:27:22;;;;;;;;;;;;;;;25.19;40.21;99709.25;3141999;28;20484;-68
2023/08/15 07:28:54;;;;;;;;;;;;;;;25.21;40.04;99709.09;3146080;28;19927;-68
2023/08/15 07:30:26;;;;;;;;;;;;;;;25.23;40.18;99714.22;3146213;28;20357;-68
2023/08/15 07:31:57;;;;;;;;;;;;;;;25.23;40.19;99709.75;3146150;28;20018;-68
2023/08/15 07:33:28;;;;;;;;;;;;;;;25.22;40.00;99710.75;3141210;28;19924;-69
2023/08/15 07:34:59;;;;;;;;;;;;;;;25.24;39.92;99707.94;3146037;28;19924;-68
2023/08/15 07:36:30;;;;;;;;;;;;;;;25.25;39.91;99714.91;3146067;28;19920;-68
2023/08/15 07:38:01;;;;;;;;;;;;;;;25.26;40.12;99709.44;3138517;28;19921;-68
2023/08/15 07:39:32;;;;;;;;;;;;;;;25.28;39.83;99718.06;3145932;28;19920;-68
2023/08/15 07:41:03;;;;;;;;;;;;;;;25.30;39.94;99705.41;3142633;28;19931;-68
2023/08/15 07:42:34;;;;;;;;;;;;;;;25.33;40.21;99713.09;3146173;28;19928;-68
2023/08/15 07:44:06;;;;;;;;;;;;;;;25.36;39.89;99711.91;3136177;28;19920;-68
2023/08/15 07:45:38;;;;;;;;;;;;;;;25.39;39.73;99712.41;3144766;28;19925;-68
2023/08/15 07:47:09;;;;;;;;;;;;;;;25.42;39.85;99716.59;3143839;28;19925;-69
2023/08/15 07:48:40;;;;;;;;;;;;;;;25.44;39.70;99714.59;3143481;28;19924;-68
2023/08/15 07:50:13;;;;;;;;;;;;;;;25.46;39.88;99715.25;3145694;28;19920;-68
2023/08/15 07:51:43;;;;;;;;;;;;;;;25.46;39.85;99717.91;3145945;28;19931;-69
2023/08/15 07:53:15;;;;;;;;;;;;;;;25.48;39.99;99713.25;3145834;28;19924;-68
2023/08/15 07:54:45;;;;;;;;;;;;;;;25.50;39.89;99707.75;3145916;28;20313;-68
2023/08/15 07:56:17;;;;;;;;;;;;;;;25.53;39.48;99710.91;3145957;28;19920;-68